Time;durP1;ratioP1;P1;durP2;ratioP2;P2;SDS_P1;SDS_P2;PMS_P1;PMS_P2;Temp;Humidity;BMP_temperature;BMP_pressure;BME280_temperature;BME280_humidity;BME280_pressure;Samples;Min_cycle;Max_cycle;Signal;HPM_P1;HPM_P2
2021/04/29 00:02:08;;;;;;;4.10;3.33;;;11.40;99.90;;;;;;5021509;28;20600;-82
2021/04/29 00:04:34;;;;;;;4.90;3.30;;;11.40;99.90;;;;;;5021816;28;20197;-80
2021/04/29 00:06:59;;;;;;;5.00;3.47;;;11.30;99.90;;;;;;5019898;28;20178;-82
2021/04/29 00:09:25;;;;;;;3.93;2.47;;;11.30;99.90;;;;;;5019273;28;20190;-80
2021/04/29 00:11:51;;;;;;;4.40;3.07;;;11.20;99.90;;;;;;5021547;28;20203;-80
2021/04/29 00:14:17;;;;;;;3.63;3.23;;;11.40;99.90;;;;;;5019788;28;20206;-79
2021/04/29 00:16:42;;;;;;;5.27;3.30;;;11.40;99.90;;;;;;5021893;28;20187;-79
2021/04/29 00:19:08;;;;;;;3.47;2.53;;;11.50;99.90;;;;;;5023213;28;20194;-81
2021/04/29 00:21:35;;;;;;;3.50;2.50;;;11.50;99.90;;;;;;5020692;28;20203;-80
2021/04/29 00:24:01;;;;;;;3.93;3.00;;;11.50;99.90;;;;;;5022118;28;20183;-81
2021/04/29 00:26:27;;;;;;;4.03;3.00;;;11.40;99.90;;;;;;5020164;28;20270;-80
2021/04/29 00:28:53;;;;;;;3.90;3.30;;;11.40;99.90;;;;;;5019344;28;20175;-81
2021/04/29 00:31:20;;;;;;;3.30;2.77;;;11.30;99.90;;;;;;5020465;28;20207;-81
2021/04/29 00:33:45;;;;;;;3.10;2.43;;;11.30;99.90;;;;;;5021342;28;20279;-81
2021/04/29 00:36:11;;;;;;;4.13;2.70;;;11.40;99.90;;;;;;5021239;28;20313;-81
2021/04/29 00:38:36;;;;;;;4.13;2.80;;;11.30;99.90;;;;;;5021039;28;21010;-81
2021/04/29 00:41:03;;;;;;;3.83;3.00;;;11.30;99.90;;;;;;5019951;28;20206;-81
2021/04/29 00:43:29;;;;;;;3.97;2.80;;;11.30;99.90;;;;;;5020341;28;20210;-81
2021/04/29 00:45:55;;;;;;;3.57;2.67;;;11.30;99.90;;;;;;5020979;28;20640;-80
2021/04/29 00:48:21;;;;;;;3.53;2.87;;;11.30;99.90;;;;;;5021103;28;20198;-80
2021/04/29 00:50:48;;;;;;;4.60;3.97;;;11.20;99.90;;;;;;5036844;28;20179;-81
2021/04/29 00:53:13;;;;;;;4.87;3.43;;;11.10;99.90;;;;;;5028456;28;20183;-80
2021/04/29 00:55:39;;;;;;;4.47;3.40;;;10.90;99.90;;;;;;5036033;23;20211;-82
2021/04/29 00:58:05;;;;;;;5.30;3.70;;;10.90;99.90;;;;;;5135497;22;20245;-82
2021/04/29 01:00:31;;;;;;;5.10;3.37;;;10.80;99.90;;;;;;5072310;22;20238;-82
2021/04/29 01:03:08;;;;;;;4.97;3.40;;;10.80;99.90;;;;;;5019626;28;20233;-80
2021/04/29 01:05:42;;;;;;;4.70;3.23;;;10.70;99.90;;;;;;5035168;28;20221;-81
2021/04/29 01:08:15;;;;;;;6.73;3.73;;;10.70;99.90;;;;;;5033336;28;20352;-81
2021/04/29 01:10:48;;;;;;;4.63;3.57;;;10.70;99.90;;;;;;5033005;28;20183;-81
2021/04/29 01:13:23;;;;;;;5.67;3.50;;;10.80;99.90;;;;;;5025914;28;20191;-79
2021/04/29 01:15:49;;;;;;;4.93;3.50;;;10.70;99.90;;;;;;5017450;28;20210;-81
2021/04/29 01:18:17;;;;;;;4.87;3.40;;;10.60;99.90;;;;;;5017552;28;20179;-79
2021/04/29 01:21:05;;;;;;;5.43;4.07;;;10.70;99.90;;;;;;5016417;28;20187;-80
2021/04/29 01:23:50;;;;;;;5.93;3.53;;;10.60;99.90;;;;;;5034355;28;20563;-82
2021/04/29 01:26:20;;;;;;;5.57;3.87;;;10.70;99.90;;;;;;5016105;28;20559;-81
2021/04/29 01:28:51;;;;;;;5.20;3.33;;;10.60;99.90;;;;;;5017381;28;20232;-83
2021/04/29 01:31:20;;;;;;;4.70;3.90;;;10.60;99.90;;;;;;5016719;28;20210;-81
2021/04/29 01:33:45;;;;;;;6.33;3.80;;;10.70;99.90;;;;;;5025249;28;20226;-79
2021/04/29 01:36:12;;;;;;;4.27;3.47;;;10.60;99.90;;;;;;5018244;28;20257;-83
2021/04/29 01:38:39;;;;;;;6.07;3.27;;;10.50;99.90;;;;;;5018463;28;20562;-83
2021/04/29 01:41:05;;;;;;;6.80;3.90;;;10.40;99.90;;;;;;5016158;28;20623;-80
2021/04/29 01:43:32;;;;;;;4.43;3.60;;;10.40;99.90;;;;;;5018217;28;20222;-81
2021/04/29 01:46:02;;;;;;;5.93;3.63;;;10.20;99.90;;;;;;5017668;28;20666;-79
2021/04/29 01:48:28;;;;;;;6.77;4.23;;;10.30;99.90;;;;;;5017184;28;20257;-80
2021/04/29 01:50:54;;;;;;;5.30;4.50;;;10.40;99.90;;;;;;5019779;28;20209;-82
2021/04/29 01:53:20;;;;;;;5.77;4.37;;;10.40;99.90;;;;;;5018759;28;20257;-81
2021/04/29 01:55:47;;;;;;;6.13;4.50;;;10.40;99.90;;;;;;5037437;28;20198;-82
2021/04/29 01:58:12;;;;;;;6.17;4.57;;;10.40;99.90;;;;;;5039926;28;20630;-78
2021/04/29 02:00:38;;;;;;;5.97;3.80;;;10.30;99.90;;;;;;5022719;28;20278;-80
2021/04/29 02:03:03;;;;;;;3.90;3.50;;;10.20;99.90;;;;;;5016145;28;20298;-80
2021/04/29 02:05:29;;;;;;;6.97;4.37;;;10.10;99.90;;;;;;5015428;28;20188;-80
2021/04/29 02:07:57;;;;;;;6.47;4.30;;;10.20;99.90;;;;;;5018479;28;20521;-81
2021/04/29 02:10:23;;;;;;;5.33;4.23;;;10.20;99.90;;;;;;5031123;28;20269;-78
2021/04/29 02:12:54;;;;;;;6.00;4.07;;;10.10;99.90;;;;;;5017573;28;20233;-78
2021/04/29 02:15:34;;;;;;;4.83;4.23;;;10.10;99.90;;;;;;5018589;28;20210;-80
2021/04/29 02:18:22;;;;;;;4.87;4.03;;;10.10;99.90;;;;;;5014450;28;20220;-79
2021/04/29 02:20:49;;;;;;;5.50;4.83;;;10.00;99.90;;;;;;5023112;28;20570;-79
2021/04/29 02:23:21;;;;;;;6.37;4.77;;;10.00;99.90;;;;;;5018474;28;20183;-80
2021/04/29 02:25:52;;;;;;;5.97;4.50;;;10.00;99.90;;;;;;5023744;28;20187;-79
2021/04/29 02:28:18;;;;;;;6.03;4.60;;;10.00;99.90;;;;;;5007952;28;20675;-79
2021/04/29 02:30:46;;;;;;;4.53;3.73;;;10.00;99.90;;;;;;5032579;28;20305;-81
2021/04/29 02:33:12;;;;;;;5.93;5.07;;;10.00;99.90;;;;;;5017494;28;20601;-79
2021/04/29 02:35:38;;;;;;;6.63;4.47;;;10.00;99.90;;;;;;5018595;28;20206;-79
2021/04/29 02:38:04;;;;;;;5.67;4.57;;;9.90;99.90;;;;;;5017013;28;20196;-79
2021/04/29 02:40:30;;;;;;;6.27;4.63;;;10.00;99.90;;;;;;5016249;28;20187;-78
2021/04/29 02:42:57;;;;;;;6.40;4.97;;;10.10;99.90;;;;;;5019889;28;20635;-78
2021/04/29 02:45:23;;;;;;;6.50;4.93;;;10.10;99.90;;;;;;5015514;28;20653;-78
2021/04/29 02:47:52;;;;;;;6.60;4.40;;;10.00;99.90;;;;;;5018786;28;20213;-79
2021/04/29 02:50:20;;;;;;;6.23;4.53;;;9.90;99.90;;;;;;5031158;28;20186;-80
2021/04/29 02:52:48;;;;;;;4.70;3.53;;;9.80;99.90;;;;;;5018017;28;20217;-81
2021/04/29 02:55:14;;;;;;;6.23;4.70;;;9.80;99.90;;;;;;5016350;28;20317;-79
2021/04/29 02:57:40;;;;;;;6.23;5.00;;;9.70;99.90;;;;;;5017450;28;20279;-80
2021/04/29 03:00:10;;;;;;;7.13;4.50;;;9.70;99.90;;;;;;5016788;28;20261;-79
2021/04/29 03:02:39;;;;;;;5.93;4.37;;;9.70;99.90;;;;;;5021230;28;20241;-80
2021/04/29 03:05:08;;;;;;;6.30;3.97;;;9.70;99.90;;;;;;5020601;28;20187;-77
2021/04/29 03:07:34;;;;;;;6.13;4.97;;;9.70;99.90;;;;;;5023341;28;20183;-79
2021/04/29 03:10:01;;;;;;;5.70;4.47;;;9.60;99.90;;;;;;5020124;28;20219;-77
2021/04/29 03:12:26;;;;;;;6.57;4.80;;;9.70;99.90;;;;;;5018474;28;20214;-79
2021/04/29 03:14:52;;;;;;;6.57;5.00;;;9.60;99.90;;;;;;5018995;28;20309;-77
2021/04/29 03:17:18;;;;;;;6.50;5.43;;;9.50;99.90;;;;;;5033587;28;20187;-79
2021/04/29 03:19:44;;;;;;;6.23;4.83;;;9.40;99.90;;;;;;5016037;28;20335;-77
2021/04/29 03:22:09;;;;;;;9.00;5.33;;;9.50;99.90;;;;;;5016911;28;20196;-78
2021/04/29 03:24:35;;;;;;;5.27;4.40;;;9.50;99.90;;;;;;5019019;28;20281;-77
2021/04/29 03:27:00;;;;;;;6.53;4.90;;;9.60;99.90;;;;;;5025391;28;20281;-77
2021/04/29 03:29:26;;;;;;;7.20;4.97;;;9.40;99.90;;;;;;5017705;28;20198;-78
2021/04/29 03:31:52;;;;;;;5.43;4.40;;;9.40;99.90;;;;;;5019584;28;20222;-78
2021/04/29 03:34:17;;;;;;;6.53;4.90;;;9.40;99.90;;;;;;5013553;28;20215;-79
2021/04/29 03:36:43;;;;;;;5.10;4.23;;;9.40;99.90;;;;;;5021878;28;20190;-79
2021/04/29 03:39:08;;;;;;;5.67;4.83;;;9.50;99.90;;;;;;5015331;28;20676;-79
2021/04/29 03:41:34;;;;;;;8.13;5.87;;;9.40;99.90;;;;;;5015548;28;20238;-79
2021/04/29 03:43:59;;;;;;;5.13;4.27;;;9.30;99.90;;;;;;5020456;28;20187;-79
2021/04/29 03:46:25;;;;;;;5.93;4.57;;;9.30;99.90;;;;;;5017534;28;20184;-79
2021/04/29 03:48:51;;;;;;;6.33;4.43;;;9.20;99.90;;;;;;5033897;28;20665;-80
2021/04/29 03:51:16;;;;;;;5.90;5.20;;;9.20;99.90;;;;;;5033411;28;20783;-78
2021/04/29 03:53:42;;;;;;;6.30;4.47;;;9.20;99.90;;;;;;5018248;28;20258;-79
2021/04/29 03:56:07;;;;;;;6.23;5.13;;;9.20;99.90;;;;;;5016993;28;20216;-77
2021/04/29 03:58:33;;;;;;;5.27;4.40;;;9.10;99.90;;;;;;5018638;28;20226;-79
2021/04/29 04:00:59;;;;;;;4.83;4.33;;;9.10;99.90;;;;;;5019748;28;20206;-80
2021/04/29 04:03:24;;;;;;;6.93;4.20;;;9.10;99.90;;;;;;5019630;28;20190;-77
2021/04/29 04:05:50;;;;;;;4.87;4.37;;;9.10;99.90;;;;;;5035071;28;20191;-79
2021/04/29 04:08:16;;;;;;;5.43;4.53;;;9.10;99.90;;;;;;5034497;28;20198;-79
2021/04/29 04:10:41;;;;;;;6.47;4.93;;;9.00;99.90;;;;;;5034118;28;20188;-78
2021/04/29 04:13:16;;;;;;;5.37;4.20;;;9.00;99.90;;;;;;5020834;28;20199;-79
2021/04/29 04:15:41;;;;;;;5.37;4.50;;;9.00;99.90;;;;;;5018080;28;20668;-78
2021/04/29 04:18:07;;;;;;;6.43;4.30;;;9.00;99.90;;;;;;5018337;28;20187;-79
2021/04/29 04:20:33;;;;;;;5.50;4.07;;;9.00;99.90;;;;;;5018182;28;20728;-78
2021/04/29 04:22:58;;;;;;;6.77;4.93;;;8.90;99.90;;;;;;5019246;28;20630;-77
2021/04/29 04:25:24;;;;;;;5.67;4.30;;;8.90;99.90;;;;;;5017578;28;20197;-79
2021/04/29 04:27:49;;;;;;;6.03;4.63;;;8.90;99.90;;;;;;5032482;28;20184;-79
2021/04/29 04:30:15;;;;;;;5.87;4.90;;;9.00;99.90;;;;;;5018989;28;20448;-77
2021/04/29 04:32:41;;;;;;;5.63;5.00;;;8.90;99.90;;;;;;5015938;28;20650;-77
2021/04/29 04:35:07;;;;;;;5.73;4.13;;;8.90;99.90;;;;;;5032950;28;20585;-78
2021/04/29 04:37:32;;;;;;;7.67;4.70;;;8.90;99.90;;;;;;5015637;28;20191;-78
2021/04/29 04:39:58;;;;;;;6.27;4.50;;;8.90;99.90;;;;;;5015896;28;20192;-77
2021/04/29 04:42:24;;;;;;;8.03;4.90;;;8.90;99.90;;;;;;5017320;28;20210;-80
2021/04/29 04:44:49;;;;;;;5.90;4.67;;;8.90;99.90;;;;;;5027976;28;20179;-77
2021/04/29 04:47:15;;;;;;;5.33;4.70;;;8.90;99.90;;;;;;5027079;28;20250;-78
2021/04/29 04:49:40;;;;;;;6.63;4.77;;;8.90;99.90;;;;;;5022360;28;20191;-78
2021/04/29 04:52:06;;;;;;;6.70;5.17;;;9.00;99.90;;;;;;5020409;28;20211;-80
2021/04/29 04:54:33;;;;;;;7.13;5.73;;;9.00;99.90;;;;;;5020693;28;20286;-79
2021/04/29 04:56:59;;;;;;;6.77;4.37;;;9.10;99.90;;;;;;5022194;28;20179;-79
2021/04/29 04:59:25;;;;;;;5.87;4.97;;;9.00;99.90;;;;;;5019173;28;20305;-79
2021/04/29 05:01:51;;;;;;;6.97;5.63;;;9.00;99.90;;;;;;5020239;28;20219;-79
2021/04/29 05:04:16;;;;;;;5.93;5.00;;;9.10;99.90;;;;;;5021646;28;20313;-81
2021/04/29 05:06:42;;;;;;;6.10;4.67;;;9.10;99.90;;;;;;5023817;28;20194;-82
2021/04/29 05:09:07;;;;;;;5.80;5.20;;;9.20;99.90;;;;;;5020357;28;20215;-79
2021/04/29 05:11:33;;;;;;;7.80;5.77;;;9.20;99.90;;;;;;5020900;28;20226;-78
2021/04/29 05:13:59;;;;;;;6.60;5.67;;;9.20;99.90;;;;;;5019850;28;20210;-79
2021/04/29 05:16:25;;;;;;;8.13;6.43;;;9.20;99.90;;;;;;5022136;28;20241;-78
2021/04/29 05:18:51;;;;;;;6.40;5.23;;;9.20;99.90;;;;;;5023361;28;20275;-79
2021/04/29 05:21:16;;;;;;;6.33;5.00;;;9.20;99.90;;;;;;5020025;28;20290;-78
2021/04/29 05:23:44;;;;;;;6.23;5.40;;;9.20;99.90;;;;;;5020713;28;20184;-78
2021/04/29 05:26:09;;;;;;;6.47;4.80;;;9.10;99.90;;;;;;5020631;28;20613;-78
2021/04/29 05:28:35;;;;;;;7.73;5.73;;;9.10;99.90;;;;;;5035741;28;20187;-77
2021/04/29 05:31:00;;;;;;;8.13;6.10;;;9.10;99.90;;;;;;5036282;28;20218;-80
2021/04/29 05:33:26;;;;;;;6.63;5.63;;;9.00;99.90;;;;;;5022336;28;20226;-78
2021/04/29 05:35:52;;;;;;;5.70;5.10;;;9.00;99.90;;;;;;5021793;28;20720;-80
2021/04/29 05:38:17;;;;;;;7.63;5.40;;;9.00;99.90;;;;;;5025035;28;20255;-78
2021/04/29 05:40:43;;;;;;;6.47;5.73;;;8.90;99.90;;;;;;5024244;28;20183;-78
2021/04/29 05:43:09;;;;;;;7.63;5.30;;;8.80;99.90;;;;;;5022665;28;20306;-81
2021/04/29 05:45:34;;;;;;;7.20;5.83;;;8.60;99.90;;;;;;5021192;28;20570;-79
2021/04/29 05:48:00;;;;;;;8.30;5.97;;;8.60;99.90;;;;;;5035166;28;20325;-80
2021/04/29 05:50:25;;;;;;;7.67;5.43;;;8.60;99.90;;;;;;5035151;28;20223;-78
2021/04/29 05:52:51;;;;;;;7.00;5.20;;;8.60;99.90;;;;;;5028976;28;20207;-80
2021/04/29 05:55:17;;;;;;;6.87;5.93;;;8.70;99.90;;;;;;5019530;28;20207;-82
2021/04/29 05:57:42;;;;;;;6.63;5.27;;;8.80;99.90;;;;;;5022023;28;20913;-79
2021/04/29 06:00:09;;;;;;;7.83;6.50;;;8.80;99.90;;;;;;5020703;28;20202;-78
2021/04/29 06:02:35;;;;;;;7.40;5.53;;;8.80;99.90;;;;;;5028018;28;20286;-79
2021/04/29 06:05:00;;;;;;;6.87;5.57;;;8.80;99.90;;;;;;5020628;28;20272;-80
2021/04/29 06:07:26;;;;;;;5.73;5.07;;;8.80;99.90;;;;;;5017886;28;20249;-79
2021/04/29 06:09:52;;;;;;;6.20;5.07;;;8.90;99.90;;;;;;5020483;28;20632;-80
2021/04/29 06:12:18;;;;;;;7.13;5.73;;;8.80;99.90;;;;;;5035764;28;20239;-78
2021/04/29 06:14:44;;;;;;;7.63;5.50;;;8.80;99.90;;;;;;5020492;28;20241;-79
2021/04/29 06:17:10;;;;;;;7.03;5.60;;;8.70;99.90;;;;;;5019998;28;20217;-80
2021/04/29 06:19:36;;;;;;;7.63;5.37;;;8.70;99.90;;;;;;5019177;28;20184;-79
2021/04/29 06:22:02;;;;;;;7.23;4.63;;;8.80;99.90;;;;;;5016625;28;20237;-77
2021/04/29 06:24:28;;;;;;;7.93;5.33;;;8.80;99.90;;;;;;5017178;28;20676;-77
2021/04/29 06:26:54;;;;;;;6.30;4.40;;;8.90;99.90;;;;;;5034282;28;20199;-79
2021/04/29 06:29:20;;;;;;;6.97;5.40;;;9.00;99.90;;;;;;5010259;28;20191;-79
2021/04/29 06:31:46;;;;;;;7.17;5.77;;;9.10;99.90;;;;;;5016058;28;20220;-79
2021/04/29 06:34:13;;;;;;;6.20;5.43;;;9.10;99.90;;;;;;5015153;28;20538;-79
2021/04/29 06:36:39;;;;;;;6.43;4.70;;;9.10;99.90;;;;;;5030939;28;20733;-79
2021/04/29 06:39:05;;;;;;;6.00;4.90;;;9.10;99.90;;;;;;5017300;28;20199;-79
2021/04/29 06:41:30;;;;;;;6.43;5.37;;;9.10;99.90;;;;;;5030879;28;20217;-79
2021/04/29 06:43:56;;;;;;;5.50;4.77;;;9.20;99.90;;;;;;5030849;28;20191;-79
2021/04/29 06:46:22;;;;;;;5.87;5.10;;;9.30;99.90;;;;;;5032267;28;20219;-80
2021/04/29 06:48:47;;;;;;;7.30;4.83;;;9.50;99.90;;;;;;5024264;28;20214;-79
2021/04/29 06:51:13;;;;;;;8.40;5.50;;;9.60;99.90;;;;;;5016760;28;20211;-78
2021/04/29 06:53:39;;;;;;;5.80;5.03;;;9.70;99.90;;;;;;5015748;28;20569;-77
2021/04/29 06:56:05;;;;;;;7.13;5.87;;;9.90;99.90;;;;;;5018764;28;20218;-78
2021/04/29 06:58:31;;;;;;;6.40;5.37;;;9.80;99.90;;;;;;5016959;28;20191;-78
2021/04/29 07:00:57;;;;;;;8.47;5.63;;;9.80;99.90;;;;;;5018830;28;20242;-80
2021/04/29 07:03:23;;;;;;;7.23;5.40;;;9.90;99.90;;;;;;5021528;28;20248;-79
2021/04/29 07:05:49;;;;;;;6.60;5.50;;;9.90;99.90;;;;;;5013105;28;20266;-77
2021/04/29 07:08:15;;;;;;;6.40;5.37;;;9.80;99.90;;;;;;5016637;28;20269;-80
2021/04/29 07:10:40;;;;;;;7.80;5.30;;;9.90;99.90;;;;;;5016222;28;20600;-79
2021/04/29 07:13:06;;;;;;;6.50;5.27;;;9.90;99.90;;;;;;5017927;28;20573;-79
2021/04/29 07:15:32;;;;;;;7.87;5.33;;;10.00;99.90;;;;;;5014332;28;20234;-77
2021/04/29 07:17:59;;;;;;;6.90;5.30;;;10.00;99.90;;;;;;5022869;28;20188;-79
2021/04/29 07:20:24;;;;;;;5.60;4.90;;;10.00;99.90;;;;;;5014328;28;20191;-78
2021/04/29 07:22:50;;;;;;;6.30;5.43;;;10.00;99.90;;;;;;5015246;28;20214;-78
2021/04/29 07:25:15;;;;;;;7.00;5.77;;;10.00;99.90;;;;;;5022099;28;20226;-79
2021/04/29 07:27:41;;;;;;;7.23;5.37;;;10.00;99.90;;;;;;5030279;28;20587;-80
2021/04/29 07:30:08;;;;;;;6.30;5.37;;;10.00;99.90;;;;;;5015882;28;20760;-79
2021/04/29 07:32:34;;;;;;;5.40;4.90;;;10.00;99.90;;;;;;5019182;28;20205;-80
2021/04/29 07:34:59;;;;;;;5.93;4.70;;;10.00;99.90;;;;;;5024360;28;20222;-80
2021/04/29 07:37:25;;;;;;;6.40;5.40;;;9.90;99.90;;;;;;5037891;28;20701;-80
2021/04/29 07:39:51;;;;;;;6.53;5.37;;;9.90;99.90;;;;;;5024816;28;20250;-80
2021/04/29 07:42:17;;;;;;;6.37;5.23;;;10.00;99.90;;;;;;5017364;28;20211;-79
2021/04/29 07:44:43;;;;;;;7.33;5.40;;;10.00;99.90;;;;;;5015910;28;20270;-78
2021/04/29 07:47:08;;;;;;;7.33;5.70;;;9.80;99.90;;;;;;5024688;28;20215;-78
2021/04/29 07:49:34;;;;;;;5.90;5.27;;;9.80;99.90;;;;;;5025140;28;20194;-78
2021/04/29 07:52:00;;;;;;;6.40;5.23;;;9.70;99.90;;;;;;5025696;28;20744;-78
2021/04/29 07:54:25;;;;;;;7.43;5.90;;;9.70;99.90;;;;;;5026797;28;20211;-78
2021/04/29 07:56:51;;;;;;;7.13;5.87;;;9.70;99.90;;;;;;5024224;28;20607;-78
2021/04/29 07:59:16;;;;;;;6.87;5.33;;;9.70;99.90;;;;;;5019292;28;20225;-79
2021/04/29 08:01:43;;;;;;;7.20;4.93;;;9.70;99.90;;;;;;5016943;28;20723;-77
2021/04/29 08:04:08;;;;;;;7.70;5.63;;;9.70;99.90;;;;;;5016772;28;20179;-78
2021/04/29 08:06:34;;;;;;;6.83;5.77;;;9.80;99.90;;;;;;5031232;28;20290;-76
2021/04/29 08:09:00;;;;;;;6.63;5.10;;;9.80;99.90;;;;;;5016384;28;20188;-76
2021/04/29 08:11:26;;;;;;;7.97;5.63;;;10.00;99.90;;;;;;5016136;28;20262;-76
2021/04/29 08:13:52;;;;;;;7.17;5.50;;;10.00;99.90;;;;;;5018301;28;20183;-80
2021/04/29 08:16:19;;;;;;;7.33;6.10;;;10.00;99.90;;;;;;5011737;28;20210;-78
2021/04/29 08:18:47;;;;;;;6.07;5.47;;;10.00;99.90;;;;;;5029327;28;20247;-80
2021/04/29 08:21:13;;;;;;;8.67;5.80;;;10.10;99.90;;;;;;5038534;28;20203;-79
2021/04/29 08:23:38;;;;;;;6.33;5.63;;;10.10;99.90;;;;;;5023136;28;20176;-79
2021/04/29 08:26:04;;;;;;;7.20;4.93;;;10.10;99.90;;;;;;5021418;28;20212;-80
2021/04/29 08:28:30;;;;;;;6.50;5.37;;;10.00;99.90;;;;;;5020088;28;20186;-80
2021/04/29 08:30:55;;;;;;;7.47;6.37;;;10.00;99.90;;;;;;5023319;28;20260;-79
2021/04/29 08:33:22;;;;;;;7.97;5.40;;;10.00;99.90;;;;;;5022630;28;20224;-78
2021/04/29 08:35:48;;;;;;;7.13;5.60;;;10.00;99.90;;;;;;5036586;28;20759;-79
2021/04/29 08:38:14;;;;;;;6.87;5.47;;;10.00;99.90;;;;;;5021073;28;20184;-77
2021/04/29 08:40:39;;;;;;;7.50;5.63;;;10.10;99.90;;;;;;5019075;28;20270;-79
2021/04/29 08:43:05;;;;;;;7.10;5.67;;;10.10;99.90;;;;;;5024671;28;20175;-79
2021/04/29 08:45:33;;;;;;;6.43;5.30;;;10.10;99.90;;;;;;5034222;28;20261;-79
2021/04/29 08:47:59;;;;;;;7.80;5.73;;;10.10;99.90;;;;;;5021430;28;20210;-79
2021/04/29 08:50:27;;;;;;;8.10;6.20;;;10.10;99.90;;;;;;5038402;28;20704;-82
2021/04/29 08:52:53;;;;;;;7.83;6.23;;;10.00;99.90;;;;;;5019449;28;20318;-80
2021/04/29 08:55:23;;;;;;;6.27;5.53;;;10.10;99.90;;;;;;5018679;28;20203;-80
2021/04/29 08:57:49;;;;;;;7.00;5.33;;;10.10;99.90;;;;;;5019945;28;20177;-79
2021/04/29 09:00:19;;;;;;;6.87;5.93;;;10.10;99.90;;;;;;5021570;28;20203;-78
2021/04/29 09:02:45;;;;;;;7.77;6.10;;;10.20;99.90;;;;;;5021298;28;20211;-78
2021/04/29 09:05:23;;;;;;;7.83;6.17;;;10.40;99.90;;;;;;5015538;28;20547;-77
2021/04/29 09:07:56;;;;;;;8.77;6.40;;;10.50;99.90;;;;;;5023637;28;20179;-79
2021/04/29 09:10:42;;;;;;;8.40;6.37;;;10.80;99.90;;;;;;5019627;28;20884;-79
2021/04/29 09:13:22;;;;;;;7.63;5.90;;;10.90;99.90;;;;;;5021816;28;20716;-79
2021/04/29 09:15:49;;;;;;;8.43;6.83;;;11.00;99.90;;;;;;5019769;28;20211;-78
2021/04/29 09:18:17;;;;;;;8.57;6.40;;;11.10;99.90;;;;;;5010017;28;20180;-79
2021/04/29 09:21:15;;;;;;;6.97;5.30;;;11.00;99.90;;;;;;5017153;28;20183;-80
2021/04/29 09:23:50;;;;;;;6.23;5.47;;;11.20;99.90;;;;;;4975871;28;20191;-80
2021/04/29 09:26:18;;;;;;;7.13;5.67;;;11.30;99.90;;;;;;5032425;28;20187;-79
2021/04/29 09:28:53;;;;;;;6.43;5.77;;;11.50;99.90;;;;;;5032415;28;20286;-79
2021/04/29 09:31:20;;;;;;;7.53;5.87;;;11.60;99.90;;;;;;5028973;28;20202;-80
2021/04/29 09:33:48;;;;;;;7.47;5.70;;;11.60;99.90;;;;;;5025621;28;20222;-81
2021/04/29 09:36:45;;;;;;;6.53;5.83;;;11.80;99.90;;;;;;5022693;28;20206;-82
2021/04/29 09:39:16;;;;;;;7.73;6.33;;;12.00;99.90;;;;;;5020049;28;20706;-79
2021/04/29 09:41:46;;;;;;;7.33;5.47;;;12.30;99.90;;;;;;5025056;28;20210;-82
2021/04/29 09:44:17;;;;;;;7.37;6.07;;;12.60;99.90;;;;;;5025197;28;20797;-81
2021/04/29 09:46:53;;;;;;;7.07;5.37;;;12.70;99.90;;;;;;5023087;28;20182;-76
2021/04/29 09:49:26;;;;;;;7.93;5.50;;;12.90;99.90;;;;;;5021975;28;20266;-83
2021/04/29 09:51:54;;;;;;;9.88;5.65;;;13.00;99.90;;;;;;5020285;28;20234;-79
2021/04/29 09:54:38;;;;;;;6.97;5.10;;;13.20;99.90;;;;;;5022250;28;20203;-81
2021/04/29 09:57:06;;;;;;;6.07;5.47;;;13.20;99.90;;;;;;5024977;28;20176;-80
2021/04/29 09:59:33;;;;;;;7.80;6.22;;;13.20;99.90;;;;;;5022333;28;20195;-81
2021/04/29 10:02:01;;;;;;;6.97;5.32;;;13.20;99.90;;;;;;5018283;28;20208;-83
2021/04/29 10:04:28;;;;;;;6.65;5.55;;;13.40;99.90;;;;;;5035990;28;20184;-81
2021/04/29 10:06:55;;;;;;;7.63;5.90;;;13.50;99.90;;;;;;5023175;28;20180;-81
2021/04/29 10:09:24;;;;;;;7.90;6.03;;;13.50;99.90;;;;;;5022710;28;20180;-83
2021/04/29 10:11:50;;;;;;;7.60;6.00;;;13.70;99.90;;;;;;5020382;28;20210;-82
2021/04/29 10:14:18;;;;;;;6.53;5.45;;;13.90;99.90;;;;;;5016184;28;20768;-79
2021/04/29 10:16:45;;;;;;;6.97;5.78;;;13.90;99.90;;;;;;5036675;28;20927;-83
2021/04/29 10:19:11;;;;;;;6.65;5.68;;;14.00;99.90;;;;;;5038037;28;20190;-80
2021/04/29 10:21:37;;;;;;;7.10;5.70;;;13.90;99.90;;;;;;5020719;28;20203;-81
2021/04/29 10:24:03;;;;;;;8.82;6.53;;;13.80;99.90;;;;;;5021516;28;20627;-80
2021/04/29 10:26:31;;;;;;;7.65;6.38;;;13.80;99.90;;;;;;5029541;28;20653;-81
2021/04/29 10:29:00;;;;;;;7.32;5.85;;;13.80;99.90;;;;;;5025158;28;20187;-82
2021/04/29 10:31:30;;;;;;;9.15;6.05;;;14.10;99.90;;;;;;5023253;28;20218;-81
2021/04/29 10:34:17;;;;;;;7.03;6.03;;;14.10;99.90;;;;;;5023055;28;20210;-80
2021/04/29 10:36:46;;;;;;;6.07;5.35;;;14.10;99.90;;;;;;5021125;28;20183;-79
2021/04/29 10:39:22;;;;;;;7.45;5.72;;;14.40;99.90;;;;;;5010429;28;20183;-80
2021/04/29 10:42:01;;;;;;;6.88;5.85;;;14.50;99.90;;;;;;5018353;28;20191;-83
2021/04/29 10:44:26;;;;;;;6.93;5.53;;;14.20;99.90;;;;;;5021971;28;20178;-80
2021/04/29 10:47:01;;;;;;;6.93;5.70;;;14.20;99.90;;;;;;5025303;28;20334;-80
2021/04/29 10:49:30;;;;;;;8.07;5.85;;;14.10;99.90;;;;;;5023275;28;20194;-79
2021/04/29 10:52:00;;;;;;;7.70;5.55;;;14.40;99.90;;;;;;5041689;28;20701;-80
2021/04/29 10:54:26;;;;;;;7.18;5.78;;;15.00;99.90;;;;;;5031312;28;20241;-84
2021/04/29 10:57:10;;;;;;;7.50;6.03;;;15.50;99.90;;;;;;5023401;28;20179;-81
2021/04/29 10:59:55;;;;;;;5.97;5.38;;;15.80;99.90;;;;;;5025059;28;20199;-80
2021/04/29 11:02:25;;;;;;;6.10;5.22;;;15.80;99.90;;;;;;5022711;28;20205;-80
2021/04/29 11:04:52;;;;;;;6.28;5.18;;;15.80;99.90;;;;;;5014762;28;20188;-80
2021/04/29 11:07:19;;;;;;;6.63;5.80;;;15.80;99.90;;;;;;5023688;28;20206;-83
2021/04/29 11:09:57;;;;;;;6.88;5.95;;;16.10;99.90;;;;;;5020124;28;20199;-84
2021/04/29 11:12:23;;;;;;;6.40;5.75;;;16.20;99.90;;;;;;5022806;28;20258;-79
2021/04/29 11:14:48;;;;;;;7.05;6.30;;;16.10;99.90;;;;;;5018971;28;20298;-82
2021/04/29 11:17:21;;;;;;;7.07;6.10;;;15.70;99.90;;;;;;5020207;28;20179;-84
2021/04/29 11:19:57;;;;;;;6.85;5.93;;;15.70;99.90;;;;;;5021851;28;20183;-83
2021/04/29 11:22:37;;;;;;;7.53;5.57;;;15.80;99.90;;;;;;5036852;28;20202;-82
2021/04/29 11:25:07;;;;;;;6.15;5.38;;;16.10;99.90;;;;;;5020440;28;20171;-82
2021/04/29 11:27:35;;;;;;;6.53;5.45;;;16.30;99.90;;;;;;5036852;28;20215;-80
2021/04/29 11:30:12;;;;;;;6.65;5.60;;;16.40;99.90;;;;;;5019282;28;20187;-84
2021/04/29 11:32:39;;;;;;;6.53;5.70;;;16.70;99.90;;;;;;5034257;28;20252;-82
2021/04/29 11:35:15;;;;;;;6.82;5.63;;;16.90;99.90;;;;;;5026625;28;20207;-83
2021/04/29 11:37:42;;;;;;;6.40;5.40;;;17.10;99.90;;;;;;5033031;28;20215;-79
2021/04/29 11:40:09;;;;;;;7.13;5.57;;;17.30;99.90;;;;;;5034391;28;21233;-81
2021/04/29 11:42:35;;;;;;;7.72;6.00;;;17.30;99.90;;;;;;5016485;28;20278;-81
2021/04/29 11:45:08;;;;;;;6.25;5.55;;;17.10;99.90;;;;;;5012030;28;20473;-80
2021/04/29 11:47:33;;;;;;;6.50;5.43;;;17.20;99.90;;;;;;5030572;28;20180;-78
2021/04/29 11:49:59;;;;;;;7.32;6.13;;;17.20;99.90;;;;;;5016605;28;20225;-80
2021/04/29 11:52:25;;;;;;;5.53;4.88;;;17.00;99.90;;;;;;5015371;28;20221;-81
2021/04/29 11:54:51;;;;;;;7.80;6.00;;;16.60;99.90;;;;;;5024470;28;20207;-80
2021/04/29 11:57:17;;;;;;;6.88;5.60;;;16.60;99.90;;;;;;5017860;28;20551;-82
2021/04/29 11:59:52;;;;;;;5.88;5.28;;;16.60;99.90;;;;;;5016315;28;20582;-81
2021/04/29 12:02:18;;;;;;;5.80;4.70;;;16.90;99.90;;;;;;5014158;28;20209;-79
2021/04/29 12:04:45;;;;;;;6.32;4.65;;;17.40;99.90;;;;;;5026025;28;20555;-81
2021/04/29 12:07:11;;;;;;;4.63;3.95;;;17.70;99.90;;;;;;5015598;28;20240;-81
2021/04/29 12:09:37;;;;;;;7.15;3.95;;;18.20;99.90;;;;;;5016865;28;20187;-82
2021/04/29 12:12:12;;;;;;;4.35;3.95;;;17.90;99.90;;;;;;5014460;28;20367;-82
2021/04/29 12:14:38;;;;;;;4.35;3.15;;;17.70;99.90;;;;;;5016216;28;20210;-82
2021/04/29 12:17:05;;;;;;;3.55;3.13;;;17.10;99.90;;;;;;5010377;28;20676;-80
2021/04/29 12:19:33;;;;;;;4.53;3.20;;;16.60;99.90;;;;;;5019378;28;20485;-81
2021/04/29 12:22:00;;;;;;;3.08;2.63;;;16.10;99.90;;;;;;5015312;28;20195;-79
2021/04/29 12:24:28;;;;;;;3.00;1.50;;;15.10;99.90;;;;;;5017110;28;20669;-82
2021/04/29 12:26:54;;;;;;;1.75;1.02;;;13.90;99.90;;;;;;5019298;28;20516;-79
2021/04/29 12:29:22;;;;;;;1.47;1.00;;;12.70;99.90;;;;;;5031103;28;20191;-81
2021/04/29 12:32:04;;;;;;;1.63;1.17;;;11.90;99.90;;;;;;5011586;28;20256;-80
2021/04/29 12:34:30;;;;;;;1.40;1.17;;;11.60;99.90;;;;;;5015875;28;20262;-78
2021/04/29 12:37:08;;;;;;;2.37;1.27;;;11.30;99.90;;;;;;5034068;28;20277;-79
2021/04/29 12:39:39;;;;;;;2.10;1.70;;;11.20;99.90;;;;;;5016739;28;20601;-79
2021/04/29 12:42:09;;;;;;;2.40;1.57;;;11.10;99.90;;;;;;5014760;28;20203;-79
2021/04/29 12:44:39;;;;;;;1.53;1.37;;;11.10;99.90;;;;;;5015395;28;20198;-78
2021/04/29 12:47:06;;;;;;;1.60;1.50;;;11.30;99.90;;;;;;5015562;28;20184;-79
2021/04/29 12:49:32;;;;;;;1.73;1.63;;;11.30;99.90;;;;;;5031188;28;20191;-76
2021/04/29 12:52:10;;;;;;;2.23;1.77;;;11.30;99.90;;;;;;5015960;28;20262;-79
2021/04/29 12:54:36;;;;;;;2.10;1.87;;;11.30;99.90;;;;;;5014701;28;20210;-82